sensor_id;sensor_type;location;lat;lon;timestamp;temperature;humidity
77247;SHT35;66279;42.820;23.374;2023-02-23T00:01:14;0.99;84.95
77247;SHT35;66279;42.820;23.374;2023-02-23T00:03:40;0.99;83.48
77247;SHT35;66279;42.820;23.374;2023-02-23T00:06:06;0.99;82.72
77247;SHT35;66279;42.820;23.374;2023-02-23T00:08:33;1.00;83.12
77247;SHT35;66279;42.820;23.374;2023-02-23T00:11:05;1.00;83.90
77247;SHT35;66279;42.820;23.374;2023-02-23T00:13:35;1.04;84.60
77247;SHT35;66279;42.820;23.374;2023-02-23T00:16:11;1.04;83.77
77247;SHT35;66279;42.820;23.374;2023-02-23T00:18:41;1.00;82.43
77247;SHT35;66279;42.820;23.374;2023-02-23T00:21:17;0.99;83.21
77247;SHT35;66279;42.820;23.374;2023-02-23T00:23:48;0.93;83.71
77247;SHT35;66279;42.820;23.374;2023-02-23T00:26:14;0.93;83.42
77247;SHT35;66279;42.820;23.374;2023-02-23T00:28:41;0.89;83.21
77247;SHT35;66279;42.820;23.374;2023-02-23T00:31:08;0.87;84.81
77247;SHT35;66279;42.820;23.374;2023-02-23T00:33:35;0.84;84.62
77247;SHT35;66279;42.820;23.374;2023-02-23T00:36:05;0.86;84.39
77247;SHT35;66279;42.820;23.374;2023-02-23T00:38:32;0.80;83.71
77247;SHT35;66279;42.820;23.374;2023-02-23T00:41:08;0.73;83.97
77247;SHT35;66279;42.820;23.374;2023-02-23T00:43:36;0.69;83.67
77247;SHT35;66279;42.820;23.374;2023-02-23T00:46:03;0.70;85.68
77247;SHT35;66279;42.820;23.374;2023-02-23T00:48:33;0.72;85.46
77247;SHT35;66279;42.820;23.374;2023-02-23T00:51:01;0.73;84.80
77247;SHT35;66279;42.820;23.374;2023-02-23T00:53:27;0.73;84.24
77247;SHT35;66279;42.820;23.374;2023-02-23T00:55:54;0.79;84.70
77247;SHT35;66279;42.820;23.374;2023-02-23T00:58:21;0.84;83.89
77247;SHT35;66279;42.820;23.374;2023-02-23T01:00:47;0.70;83.77
77247;SHT35;66279;42.820;23.374;2023-02-23T01:03:12;0.65;85.14
77247;SHT35;66279;42.820;23.374;2023-02-23T01:05:38;0.62;85.79
77247;SHT35;66279;42.820;23.374;2023-02-23T01:08:03;0.59;85.35
77247;SHT35;66279;42.820;23.374;2023-02-23T01:10:37;0.53;84.45
77247;SHT35;66279;42.820;23.374;2023-02-23T01:13:03;0.52;86.63
77247;SHT35;66279;42.820;23.374;2023-02-23T01:15:30;0.45;85.27
77247;SHT35;66279;42.820;23.374;2023-02-23T01:17:57;0.38;85.45
77247;SHT35;66279;42.820;23.374;2023-02-23T01:20:23;0.32;85.15
77247;SHT35;66279;42.820;23.374;2023-02-23T01:22:50;0.31;85.84
77247;SHT35;66279;42.820;23.374;2023-02-23T01:25:17;0.32;86.02
77247;SHT35;66279;42.820;23.374;2023-02-23T01:27:43;0.33;85.64
77247;SHT35;66279;42.820;23.374;2023-02-23T01:30:11;0.33;86.16
77247;SHT35;66279;42.820;23.374;2023-02-23T01:32:38;0.32;86.42
77247;SHT35;66279;42.820;23.374;2023-02-23T01:35:05;0.28;86.16
77247;SHT35;66279;42.820;23.374;2023-02-23T01:37:35;0.26;85.97
77247;SHT35;66279;42.820;23.374;2023-02-23T01:40:06;0.22;86.25
77247;SHT35;66279;42.820;23.374;2023-02-23T01:42:45;0.19;85.92
77247;SHT35;66279;42.820;23.374;2023-02-23T01:45:21;0.15;85.26
77247;SHT35;66279;42.820;23.374;2023-02-23T01:47:49;0.12;85.04
77247;SHT35;66279;42.820;23.374;2023-02-23T01:50:15;0.10;85.78
77247;SHT35;66279;42.820;23.374;2023-02-23T01:52:46;0.08;86.05
77247;SHT35;66279;42.820;23.374;2023-02-23T01:55:15;0.12;86.81
77247;SHT35;66279;42.820;23.374;2023-02-23T01:57:47;0.24;88.69
77247;SHT35;66279;42.820;23.374;2023-02-23T02:00:14;0.33;88.57
77247;SHT35;66279;42.820;23.374;2023-02-23T02:02:44;0.35;88.17
77247;SHT35;66279;42.820;23.374;2023-02-23T02:05:14;0.39;87.00
77247;SHT35;66279;42.820;23.374;2023-02-23T02:07:45;0.42;87.71
77247;SHT35;66279;42.820;23.374;2023-02-23T02:10:13;0.42;87.38
77247;SHT35;66279;42.820;23.374;2023-02-23T02:12:40;0.45;88.72
77247;SHT35;66279;42.820;23.374;2023-02-23T02:15:07;0.46;87.74
77247;SHT35;66279;42.820;23.374;2023-02-23T02:23:59;0.37;86.64
77247;SHT35;66279;42.820;23.374;2023-02-23T02:26:48;0.38;85.47
77247;SHT35;66279;42.820;23.374;2023-02-23T02:32:45;0.39;85.65
77247;SHT35;66279;42.820;23.374;2023-02-23T02:35:28;0.44;84.99
77247;SHT35;66279;42.820;23.374;2023-02-23T02:38:16;0.45;84.37
77247;SHT35;66279;42.820;23.374;2023-02-23T02:46:32;0.38;85.60
77247;SHT35;66279;42.820;23.374;2023-02-23T02:49:25;0.33;85.83
77247;SHT35;66279;42.820;23.374;2023-02-23T02:51:55;0.28;86.52
77247;SHT35;66279;42.820;23.374;2023-02-23T02:54:37;0.31;85.81
77247;SHT35;66279;42.820;23.374;2023-02-23T02:57:04;0.28;85.11
77247;SHT35;66279;42.820;23.374;2023-02-23T02:59:41;0.24;84.59
77247;SHT35;66279;42.820;23.374;2023-02-23T03:02:26;0.14;85.87
77247;SHT35;66279;42.820;23.374;2023-02-23T03:05:15;0.14;85.67
77247;SHT35;66279;42.820;23.374;2023-02-23T03:10:55;0.17;85.00
77247;SHT35;66279;42.820;23.374;2023-02-23T03:16:36;0.12;85.07
77247;SHT35;66279;42.820;23.374;2023-02-23T03:19:25;0.05;84.51
77247;SHT35;66279;42.820;23.374;2023-02-23T03:22:26;0.05;85.77
77247;SHT35;66279;42.820;23.374;2023-02-23T03:25:34;0.01;86.39
77247;SHT35;66279;42.820;23.374;2023-02-23T03:28:31;-0.05;86.35
77247;SHT35;66279;42.820;23.374;2023-02-23T03:34:21;-0.16;86.45
77247;SHT35;66279;42.820;23.374;2023-02-23T03:37:17;-0.20;85.91
77247;SHT35;66279;42.820;23.374;2023-02-23T03:40:10;-0.23;86.44
77247;SHT35;66279;42.820;23.374;2023-02-23T03:42:58;-0.29;86.58
77247;SHT35;66279;42.820;23.374;2023-02-23T03:45:45;-0.30;86.49
77247;SHT35;66279;42.820;23.374;2023-02-23T03:48:32;-0.30;85.76
77247;SHT35;66279;42.820;23.374;2023-02-23T03:51:19;-0.37;85.81
77247;SHT35;66279;42.820;23.374;2023-02-23T03:54:32;-0.31;86.13
77247;SHT35;66279;42.820;23.374;2023-02-23T03:57:15;-0.42;84.96
77247;SHT35;66279;42.820;23.374;2023-02-23T04:00:03;-0.47;85.73
77247;SHT35;66279;42.820;23.374;2023-02-23T04:02:49;-0.48;85.95
77247;SHT35;66279;42.820;23.374;2023-02-23T04:05:36;-0.57;85.78
77247;SHT35;66279;42.820;23.374;2023-02-23T04:08:27;-0.53;85.89
77247;SHT35;66279;42.820;23.374;2023-02-23T04:11:29;-0.54;86.01
77247;SHT35;66279;42.820;23.374;2023-02-23T04:14:24;-0.53;86.76
77247;SHT35;66279;42.820;23.374;2023-02-23T04:16:51;-0.53;86.13
77247;SHT35;66279;42.820;23.374;2023-02-23T04:19:17;-0.69;85.07
77247;SHT35;66279;42.820;23.374;2023-02-23T04:21:42;-0.79;86.13
77247;SHT35;66279;42.820;23.374;2023-02-23T04:24:09;-0.81;86.58
77247;SHT35;66279;42.820;23.374;2023-02-23T04:26:35;-0.84;86.68
77247;SHT35;66279;42.820;23.374;2023-02-23T04:29:00;-0.91;86.52
77247;SHT35;66279;42.820;23.374;2023-02-23T04:31:26;-0.91;87.30
77247;SHT35;66279;42.820;23.374;2023-02-23T04:33:51;-0.88;88.33
77247;SHT35;66279;42.820;23.374;2023-02-23T04:36:17;-0.93;87.32
77247;SHT35;66279;42.820;23.374;2023-02-23T04:38:42;-0.98;87.21
77247;SHT35;66279;42.820;23.374;2023-02-23T04:41:08;-0.96;87.73
77247;SHT35;66279;42.820;23.374;2023-02-23T04:43:34;-0.95;86.79
77247;SHT35;66279;42.820;23.374;2023-02-23T04:45:59;-0.96;86.93
77247;SHT35;66279;42.820;23.374;2023-02-23T04:48:25;-0.92;87.47
77247;SHT35;66279;42.820;23.374;2023-02-23T04:50:52;-0.92;87.08
77247;SHT35;66279;42.820;23.374;2023-02-23T04:53:18;-0.93;85.84
77247;SHT35;66279;42.820;23.374;2023-02-23T04:55:43;-1.00;85.29
77247;SHT35;66279;42.820;23.374;2023-02-23T04:58:09;-1.02;85.83
77247;SHT35;66279;42.820;23.374;2023-02-23T05:00:38;-1.08;86.32
77247;SHT35;66279;42.820;23.374;2023-02-23T05:03:04;-1.09;87.06
77247;SHT35;66279;42.820;23.374;2023-02-23T05:05:29;-1.10;86.96
77247;SHT35;66279;42.820;23.374;2023-02-23T05:07:55;-1.15;86.41
77247;SHT35;66279;42.820;23.374;2023-02-23T05:10:21;-1.20;86.71
77247;SHT35;66279;42.820;23.374;2023-02-23T05:12:47;-1.23;87.38
77247;SHT35;66279;42.820;23.374;2023-02-23T05:15:12;-1.21;87.87
77247;SHT35;66279;42.820;23.374;2023-02-23T05:17:39;-1.20;87.56
77247;SHT35;66279;42.820;23.374;2023-02-23T05:20:07;-1.21;87.10
77247;SHT35;66279;42.820;23.374;2023-02-23T05:22:33;-1.25;86.74
77247;SHT35;66279;42.820;23.374;2023-02-23T05:24:59;-1.33;87.01
77247;SHT35;66279;42.820;23.374;2023-02-23T05:27:24;-1.33;87.55
77247;SHT35;66279;42.820;23.374;2023-02-23T05:29:50;-1.32;87.46
77247;SHT35;66279;42.820;23.374;2023-02-23T05:32:15;-1.30;86.63
77247;SHT35;66279;42.820;23.374;2023-02-23T05:34:41;-1.25;86.94
77247;SHT35;66279;42.820;23.374;2023-02-23T05:37:07;-1.21;86.90
77247;SHT35;66279;42.820;23.374;2023-02-23T05:39:32;-1.27;87.70
77247;SHT35;66279;42.820;23.374;2023-02-23T05:41:58;-1.25;88.05
77247;SHT35;66279;42.820;23.374;2023-02-23T05:44:23;-1.20;87.80
77247;SHT35;66279;42.820;23.374;2023-02-23T05:46:49;-1.16;87.58
77247;SHT35;66279;42.820;23.374;2023-02-23T05:49:15;-1.12;87.10
77247;SHT35;66279;42.820;23.374;2023-02-23T05:51:40;-1.09;86.97
77247;SHT35;66279;42.820;23.374;2023-02-23T05:54:06;-1.10;86.35
77247;SHT35;66279;42.820;23.374;2023-02-23T05:56:32;-1.03;87.35
77247;SHT35;66279;42.820;23.374;2023-02-23T05:58:57;-0.96;88.12
77247;SHT35;66279;42.820;23.374;2023-02-23T06:01:24;-0.85;87.91
77247;SHT35;66279;42.820;23.374;2023-02-23T06:03:50;-0.69;88.33
77247;SHT35;66279;42.820;23.374;2023-02-23T06:06:16;-0.54;87.56
77247;SHT35;66279;42.820;23.374;2023-02-23T06:08:43;-0.41;86.95
77247;SHT35;66279;42.820;23.374;2023-02-23T06:11:09;-0.33;85.85
77247;SHT35;66279;42.820;23.374;2023-02-23T06:13:35;-0.21;85.59
77247;SHT35;66279;42.820;23.374;2023-02-23T06:16:00;-0.06;85.09
77247;SHT35;66279;42.820;23.374;2023-02-23T06:18:27;0.11;85.22
77247;SHT35;66279;42.820;23.374;2023-02-23T06:20:53;0.31;85.17
77247;SHT35;66279;42.820;23.374;2023-02-23T06:23:18;0.48;84.68
77247;SHT35;66279;42.820;23.374;2023-02-23T06:25:47;0.62;84.41
77247;SHT35;66279;42.820;23.374;2023-02-23T06:28:13;0.77;84.10
77247;SHT35;66279;42.820;23.374;2023-02-23T06:30:39;0.91;84.31
77247;SHT35;66279;42.820;23.374;2023-02-23T06:33:05;1.05;83.34
77247;SHT35;66279;42.820;23.374;2023-02-23T06:35:31;1.21;83.73
77247;SHT35;66279;42.820;23.374;2023-02-23T06:37:58;1.35;83.65
77247;SHT35;66279;42.820;23.374;2023-02-23T06:40:24;1.52;83.39
77247;SHT35;66279;42.820;23.374;2023-02-23T06:42:50;1.71;83.57
77247;SHT35;66279;42.820;23.374;2023-02-23T06:45:16;1.83;83.86
77247;SHT35;66279;42.820;23.374;2023-02-23T06:47:42;2.11;82.73
77247;SHT35;66279;42.820;23.374;2023-02-23T06:50:09;2.34;82.68
77247;SHT35;66279;42.820;23.374;2023-02-23T06:52:35;2.52;81.88
77247;SHT35;66279;42.820;23.374;2023-02-23T06:55:00;2.85;81.43
77247;SHT35;66279;42.820;23.374;2023-02-23T06:57:26;3.08;80.46
77247;SHT35;66279;42.820;23.374;2023-02-23T06:59:52;3.29;80.59
77247;SHT35;66279;42.820;23.374;2023-02-23T07:02:17;3.53;80.28
77247;SHT35;66279;42.820;23.374;2023-02-23T07:04:43;3.74;79.98
77247;SHT35;66279;42.820;23.374;2023-02-23T07:07:09;3.94;79.43
77247;SHT35;66279;42.820;23.374;2023-02-23T07:09:35;4.16;79.32
77247;SHT35;66279;42.820;23.374;2023-02-23T07:12:00;4.38;78.65
77247;SHT35;66279;42.820;23.374;2023-02-23T07:14:26;4.54;77.87
77247;SHT35;66279;42.820;23.374;2023-02-23T07:16:52;4.74;78.46
77247;SHT35;66279;42.820;23.374;2023-02-23T07:19:18;4.94;76.49
77247;SHT35;66279;42.820;23.374;2023-02-23T07:21:44;5.15;76.17
77247;SHT35;66279;42.820;23.374;2023-02-23T07:24:09;5.35;75.55
77247;SHT35;66279;42.820;23.374;2023-02-23T07:26:35;5.60;75.99
77247;SHT35;66279;42.820;23.374;2023-02-23T07:29:01;5.80;75.65
77247;SHT35;66279;42.820;23.374;2023-02-23T07:31:27;5.98;75.03
77247;SHT35;66279;42.820;23.374;2023-02-23T07:33:53;6.17;73.35
77247;SHT35;66279;42.820;23.374;2023-02-23T07:36:20;6.39;72.90
77247;SHT35;66279;42.820;23.374;2023-02-23T07:38:46;6.59;71.72
77247;SHT35;66279;42.820;23.374;2023-02-23T07:41:12;6.75;70.86
77247;SHT35;66279;42.820;23.374;2023-02-23T07:43:38;7.00;70.24
77247;SHT35;66279;42.820;23.374;2023-02-23T07:46:03;7.14;70.60
77247;SHT35;66279;42.820;23.374;2023-02-23T07:48:29;7.31;69.62
77247;SHT35;66279;42.820;23.374;2023-02-23T07:50:54;7.34;70.25
77247;SHT35;66279;42.820;23.374;2023-02-23T07:53:20;7.43;68.49
77247;SHT35;66279;42.820;23.374;2023-02-23T07:55:53;7.68;69.43
77247;SHT35;66279;42.820;23.374;2023-02-23T07:58:19;7.95;67.22
77247;SHT35;66279;42.820;23.374;2023-02-23T08:00:44;8.10;64.98
77247;SHT35;66279;42.820;23.374;2023-02-23T08:03:10;8.46;66.35
77247;SHT35;66279;42.820;23.374;2023-02-23T08:05:35;8.63;64.87
77247;SHT35;66279;42.820;23.374;2023-02-23T08:08:04;8.85;64.72
77247;SHT35;66279;42.820;23.374;2023-02-23T08:10:29;9.11;62.95
77247;SHT35;66279;42.820;23.374;2023-02-23T08:12:56;9.20;63.73
77247;SHT35;66279;42.820;23.374;2023-02-23T08:15:22;9.56;64.08
77247;SHT35;66279;42.820;23.374;2023-02-23T08:17:47;9.77;60.60
77247;SHT35;66279;42.820;23.374;2023-02-23T08:20:13;10.01;59.54
77247;SHT35;66279;42.820;23.374;2023-02-23T08:22:38;10.09;59.00
77247;SHT35;66279;42.820;23.374;2023-02-23T08:25:04;10.22;61.14
77247;SHT35;66279;42.820;23.374;2023-02-23T08:27:33;10.22;59.74
77247;SHT35;66279;42.820;23.374;2023-02-23T08:29:59;10.62;62.13
77247;SHT35;66279;42.820;23.374;2023-02-23T08:32:29;10.94;59.22
77247;SHT35;66279;42.820;23.374;2023-02-23T08:34:55;10.97;55.28
77247;SHT35;66279;42.820;23.374;2023-02-23T08:37:22;10.87;54.96
77247;SHT35;66279;42.820;23.374;2023-02-23T08:39:48;11.08;54.22
77247;SHT35;66279;42.820;23.374;2023-02-23T08:42:15;11.51;56.95
77247;SHT35;66279;42.820;23.374;2023-02-23T08:44:42;11.66;53.64
77247;SHT35;66279;42.820;23.374;2023-02-23T08:47:07;12.06;53.40
77247;SHT35;66279;42.820;23.374;2023-02-23T08:49:33;12.26;51.78
77247;SHT35;66279;42.820;23.374;2023-02-23T08:51:58;12.64;55.94
77247;SHT35;66279;42.820;23.374;2023-02-23T08:54:24;12.87;51.68
77247;SHT35;66279;42.820;23.374;2023-02-23T08:56:49;13.27;50.36
77247;SHT35;66279;42.820;23.374;2023-02-23T08:59:15;13.54;55.45
77247;SHT35;66279;42.820;23.374;2023-02-23T09:01:41;13.23;49.24
77247;SHT35;66279;42.820;23.374;2023-02-23T09:04:07;13.57;50.23
77247;SHT35;66279;42.820;23.374;2023-02-23T09:06:32;13.92;51.77
77247;SHT35;66279;42.820;23.374;2023-02-23T09:08:59;14.15;51.55
77247;SHT35;66279;42.820;23.374;2023-02-23T09:11:25;14.49;51.89
77247;SHT35;66279;42.820;23.374;2023-02-23T09:13:51;14.75;49.95
77247;SHT35;66279;42.820;23.374;2023-02-23T09:16:16;14.94;48.10
77247;SHT35;66279;42.820;23.374;2023-02-23T09:18:42;15.12;53.57
77247;SHT35;66279;42.820;23.374;2023-02-23T09:21:13;15.21;46.99
77247;SHT35;66279;42.820;23.374;2023-02-23T09:23:43;15.38;50.36
77247;SHT35;66279;42.820;23.374;2023-02-23T09:26:10;15.48;46.77
77247;SHT35;66279;42.820;23.374;2023-02-23T09:28:37;15.48;45.57
77247;SHT35;66279;42.820;23.374;2023-02-23T09:31:10;15.87;46.40
77247;SHT35;66279;42.820;23.374;2023-02-23T09:33:36;15.99;45.11
77247;SHT35;66279;42.820;23.374;2023-02-23T09:36:11;16.16;47.30
77247;SHT35;66279;42.820;23.374;2023-02-23T09:38:38;16.14;46.46
77247;SHT35;66279;42.820;23.374;2023-02-23T09:41:25;15.93;44.23
77247;SHT35;66279;42.820;23.374;2023-02-23T09:47:12;15.99;43.19
77247;SHT35;66279;42.820;23.374;2023-02-23T09:49:44;16.30;44.77
77247;SHT35;66279;42.820;23.374;2023-02-23T09:52:19;16.60;47.04
77247;SHT35;66279;42.820;23.374;2023-02-23T09:54:45;16.91;46.04
77247;SHT35;66279;42.820;23.374;2023-02-23T09:57:15;17.11;42.79
77247;SHT35;66279;42.820;23.374;2023-02-23T09:59:42;17.11;41.97
77247;SHT35;66279;42.820;23.374;2023-02-23T10:04:44;17.59;43.26
77247;SHT35;66279;42.820;23.374;2023-02-23T10:13:03;17.70;41.74
77247;SHT35;66279;42.820;23.374;2023-02-23T10:24:00;18.09;40.72
77247;SHT35;66279;42.820;23.374;2023-02-23T10:26:37;18.13;39.35
77247;SHT35;66279;42.820;23.374;2023-02-23T10:29:14;18.33;40.84
77247;SHT35;66279;42.820;23.374;2023-02-23T10:31:45;18.28;39.36
77247;SHT35;66279;42.820;23.374;2023-02-23T10:34:14;18.46;39.66
77247;SHT35;66279;42.820;23.374;2023-02-23T10:36:49;18.57;40.15
77247;SHT35;66279;42.820;23.374;2023-02-23T10:39:16;18.57;38.46
77247;SHT35;66279;42.820;23.374;2023-02-23T10:41:42;18.69;38.65
77247;SHT35;66279;42.820;23.374;2023-02-23T10:44:18;18.83;42.81
77247;SHT35;66279;42.820;23.374;2023-02-23T10:46:49;18.77;38.06
77247;SHT35;66279;42.820;23.374;2023-02-23T10:49:23;19.14;42.50
77247;SHT35;66279;42.820;23.374;2023-02-23T10:51:58;19.36;37.39
77247;SHT35;66279;42.820;23.374;2023-02-23T10:57:00;19.70;36.63
77247;SHT35;66279;42.820;23.374;2023-02-23T10:59:26;19.58;36.23
77247;SHT35;66279;42.820;23.374;2023-02-23T11:01:52;19.62;38.42
77247;SHT35;66279;42.820;23.374;2023-02-23T11:04:22;19.70;36.60
77247;SHT35;66279;42.820;23.374;2023-02-23T11:06:48;19.82;38.59
77247;SHT35;66279;42.820;23.374;2023-02-23T11:09:31;19.90;34.90
77247;SHT35;66279;42.820;23.374;2023-02-23T11:12:00;19.79;39.09
77247;SHT35;66279;42.820;23.374;2023-02-23T11:14:31;19.69;34.73
77247;SHT35;66279;42.820;23.374;2023-02-23T11:16:58;19.41;35.46
77247;SHT35;66279;42.820;23.374;2023-02-23T11:19:35;19.70;35.06
77247;SHT35;66279;42.820;23.374;2023-02-23T11:22:05;19.87;38.56
77247;SHT35;66279;42.820;23.374;2023-02-23T11:24:36;20.00;35.50
77247;SHT35;66279;42.820;23.374;2023-02-23T11:27:05;20.26;34.20
77247;SHT35;66279;42.820;23.374;2023-02-23T11:29:37;19.93;34.59
77247;SHT35;66279;42.820;23.374;2023-02-23T11:32:08;20.16;34.76
77247;SHT35;66279;42.820;23.374;2023-02-23T11:34:37;20.27;33.99
77247;SHT35;66279;42.820;23.374;2023-02-23T11:42:19;20.45;33.78
77247;SHT35;66279;42.820;23.374;2023-02-23T11:47:37;21.02;33.81
77247;SHT35;66279;42.820;23.374;2023-02-23T11:50:04;20.65;33.04
77247;SHT35;66279;42.820;23.374;2023-02-23T11:52:31;20.58;32.53
77247;SHT35;66279;42.820;23.374;2023-02-23T11:54:59;20.45;34.96
77247;SHT35;66279;42.820;23.374;2023-02-23T11:57:30;20.52;33.05
77247;SHT35;66279;42.820;23.374;2023-02-23T11:59:59;20.43;33.94
77247;SHT35;66279;42.820;23.374;2023-02-23T12:02:29;20.51;33.88
77247;SHT35;66279;42.820;23.374;2023-02-23T12:05:28;20.99;34.19
77247;SHT35;66279;42.820;23.374;2023-02-23T12:08:08;20.85;31.64
77247;SHT35;66279;42.820;23.374;2023-02-23T12:10:41;21.02;34.53
77247;SHT35;66279;42.820;23.374;2023-02-23T12:13:24;20.52;31.42
77247;SHT35;66279;42.820;23.374;2023-02-23T12:24:24;20.48;32.99
77247;SHT35;66279;42.820;23.374;2023-02-23T12:27:15;20.51;31.31
77247;SHT35;66279;42.820;23.374;2023-02-23T12:29:51;20.94;34.97
77247;SHT35;66279;42.820;23.374;2023-02-23T12:32:24;20.96;31.50
77247;SHT35;66279;42.820;23.374;2023-02-23T12:35:05;20.99;32.90
77247;SHT35;66279;42.820;23.374;2023-02-23T12:37:38;20.88;34.64
77247;SHT35;66279;42.820;23.374;2023-02-23T12:40:27;21.15;31.81
77247;SHT35;66279;42.820;23.374;2023-02-23T12:45:28;21.15;33.66
77247;SHT35;66279;42.820;23.374;2023-02-23T12:48:13;20.69;30.56
77247;SHT35;66279;42.820;23.374;2023-02-23T12:50:44;20.54;31.39
77247;SHT35;66279;42.820;23.374;2023-02-23T13:05:05;20.50;32.67
77247;SHT35;66279;42.820;23.374;2023-02-23T13:08:05;20.77;33.39
77247;SHT35;66279;42.820;23.374;2023-02-23T13:10:53;20.64;33.22
77247;SHT35;66279;42.820;23.374;2023-02-23T13:13:49;20.61;29.95
77247;SHT35;66279;42.820;23.374;2023-02-23T13:19:51;19.87;34.15
77247;SHT35;66279;42.820;23.374;2023-02-23T13:24:57;19.34;36.62
77247;SHT35;66279;42.820;23.374;2023-02-23T13:27:33;19.07;36.94
77247;SHT35;66279;42.820;23.374;2023-02-23T13:30:00;18.72;37.54
77247;SHT35;66279;42.820;23.374;2023-02-23T13:32:30;18.56;38.26
77247;SHT35;66279;42.820;23.374;2023-02-23T13:35:06;18.06;39.87
77247;SHT35;66279;42.820;23.374;2023-02-23T13:37:54;17.97;39.70
77247;SHT35;66279;42.820;23.374;2023-02-23T13:43:27;17.40;40.58
77247;SHT35;66279;42.820;23.374;2023-02-23T13:48:39;17.29;40.82
77247;SHT35;66279;42.820;23.374;2023-02-23T13:51:23;17.03;41.49
77247;SHT35;66279;42.820;23.374;2023-02-23T13:56:25;16.68;42.34
77247;SHT35;66279;42.820;23.374;2023-02-23T13:58:58;16.50;42.82
77247;SHT35;66279;42.820;23.374;2023-02-23T14:01:34;16.27;43.34
77247;SHT35;66279;42.820;23.374;2023-02-23T14:04:03;16.12;43.88
77247;SHT35;66279;42.820;23.374;2023-02-23T14:06:31;16.18;43.93
77247;SHT35;66279;42.820;23.374;2023-02-23T14:09:07;16.28;43.77
77247;SHT35;66279;42.820;23.374;2023-02-23T14:12:03;16.21;43.97
77247;SHT35;66279;42.820;23.374;2023-02-23T14:22:27;16.18;44.10
77247;SHT35;66279;42.820;23.374;2023-02-23T14:28:00;15.86;44.95
77247;SHT35;66279;42.820;23.374;2023-02-23T14:30:43;15.32;45.82
77247;SHT35;66279;42.820;23.374;2023-02-23T14:41:34;14.77;47.40
77247;SHT35;66279;42.820;23.374;2023-02-23T14:44:05;14.66;47.70
77247;SHT35;66279;42.820;23.374;2023-02-23T14:46:32;14.53;48.20
77247;SHT35;66279;42.820;23.374;2023-02-23T14:51:50;14.46;48.30
77247;SHT35;66279;42.820;23.374;2023-02-23T14:56:46;14.19;48.99
77247;SHT35;66279;42.820;23.374;2023-02-23T14:59:20;14.08;49.24
77247;SHT35;66279;42.820;23.374;2023-02-23T15:01:48;13.98;49.51
77247;SHT35;66279;42.820;23.374;2023-02-23T15:04:20;13.84;49.85
77247;SHT35;66279;42.820;23.374;2023-02-23T15:06:47;13.81;50.20
77247;SHT35;66279;42.820;23.374;2023-02-23T15:09:20;13.57;50.70
77247;SHT35;66279;42.820;23.374;2023-02-23T15:11:48;13.46;50.92
77247;SHT35;66279;42.820;23.374;2023-02-23T15:14:16;13.23;51.55
77247;SHT35;66279;42.820;23.374;2023-02-23T15:16:42;13.13;51.75
77247;SHT35;66279;42.820;23.374;2023-02-23T15:19:16;13.06;51.84
77247;SHT35;66279;42.820;23.374;2023-02-23T15:21:51;12.99;52.30
77247;SHT35;66279;42.820;23.374;2023-02-23T15:24:21;12.88;52.28
77247;SHT35;66279;42.820;23.374;2023-02-23T15:26:49;12.64;53.10
77247;SHT35;66279;42.820;23.374;2023-02-23T15:29:18;12.48;53.57
77247;SHT35;66279;42.820;23.374;2023-02-23T15:31:45;12.42;53.65
77247;SHT35;66279;42.820;23.374;2023-02-23T15:34:21;12.41;53.90
77247;SHT35;66279;42.820;23.374;2023-02-23T15:36:55;12.41;53.65
77247;SHT35;66279;42.820;23.374;2023-02-23T15:41:59;12.21;54.21
77247;SHT35;66279;42.820;23.374;2023-02-23T15:44:27;12.09;54.54
77247;SHT35;66279;42.820;23.374;2023-02-23T15:47:02;11.94;55.03
77247;SHT35;66279;42.820;23.374;2023-02-23T15:49:35;11.90;55.14
77247;SHT35;66279;42.820;23.374;2023-02-23T15:52:05;11.75;55.50
77247;SHT35;66279;42.820;23.374;2023-02-23T15:54:36;11.63;55.98
77247;SHT35;66279;42.820;23.374;2023-02-23T15:57:18;11.51;56.24
77247;SHT35;66279;42.820;23.374;2023-02-23T15:59:45;11.39;56.72
77247;SHT35;66279;42.820;23.374;2023-02-23T16:02:17;11.36;56.76
77247;SHT35;66279;42.820;23.374;2023-02-23T16:04:44;11.32;56.65
77247;SHT35;66279;42.820;23.374;2023-02-23T16:07:23;11.22;57.20
77247;SHT35;66279;42.820;23.374;2023-02-23T16:10:02;11.15;57.54
77247;SHT35;66279;42.820;23.374;2023-02-23T16:12:30;11.10;57.06
77247;SHT35;66279;42.820;23.374;2023-02-23T16:15:00;11.11;57.13
77247;SHT35;66279;42.820;23.374;2023-02-23T16:17:41;11.10;57.86
77247;SHT35;66279;42.820;23.374;2023-02-23T16:22:37;11.07;58.00
77247;SHT35;66279;42.820;23.374;2023-02-23T16:25:11;11.04;58.07
77247;SHT35;66279;42.820;23.374;2023-02-23T16:27:37;10.99;58.22
77247;SHT35;66279;42.820;23.374;2023-02-23T16:30:19;10.97;57.81
77247;SHT35;66279;42.820;23.374;2023-02-23T16:36:09;10.92;57.95
77247;SHT35;66279;42.820;23.374;2023-02-23T16:38:39;10.81;58.34
77247;SHT35;66279;42.820;23.374;2023-02-23T16:41:12;10.74;58.87
77247;SHT35;66279;42.820;23.374;2023-02-23T16:43:39;10.69;59.20
77247;SHT35;66279;42.820;23.374;2023-02-23T16:46:05;10.64;59.07
77247;SHT35;66279;42.820;23.374;2023-02-23T16:48:30;10.60;59.16
77247;SHT35;66279;42.820;23.374;2023-02-23T16:50:56;10.57;59.29
77247;SHT35;66279;42.820;23.374;2023-02-23T16:53:21;10.53;59.54
77247;SHT35;66279;42.820;23.374;2023-02-23T16:55:53;10.48;59.76
77247;SHT35;66279;42.820;23.374;2023-02-23T16:58:24;10.46;59.46
77247;SHT35;66279;42.820;23.374;2023-02-23T17:00:51;10.41;59.90
77247;SHT35;66279;42.820;23.374;2023-02-23T17:06:40;10.32;59.95
77247;SHT35;66279;42.820;23.374;2023-02-23T17:09:08;10.29;60.10
77247;SHT35;66279;42.820;23.374;2023-02-23T17:11:34;10.22;60.49
77247;SHT35;66279;42.820;23.374;2023-02-23T17:13:59;10.11;60.82
77247;SHT35;66279;42.820;23.374;2023-02-23T17:16:25;10.08;60.82
77247;SHT35;66279;42.820;23.374;2023-02-23T17:18:50;10.06;61.02
77247;SHT35;66279;42.820;23.374;2023-02-23T17:21:17;10.01;61.19
77247;SHT35;66279;42.820;23.374;2023-02-23T17:23:48;9.99;61.29
77247;SHT35;66279;42.820;23.374;2023-02-23T17:26:23;9.97;61.44
77247;SHT35;66279;42.820;23.374;2023-02-23T17:28:50;9.93;61.75
77247;SHT35;66279;42.820;23.374;2023-02-23T17:31:17;9.84;61.86
77247;SHT35;66279;42.820;23.374;2023-02-23T17:33:43;9.78;62.27
77247;SHT35;66279;42.820;23.374;2023-02-23T17:36:12;9.78;62.21
77247;SHT35;66279;42.820;23.374;2023-02-23T17:38:38;9.74;62.22
77247;SHT35;66279;42.820;23.374;2023-02-23T17:41:15;9.71;62.29
77247;SHT35;66279;42.820;23.374;2023-02-23T17:43:41;9.70;62.36
77247;SHT35;66279;42.820;23.374;2023-02-23T17:46:07;9.66;62.94
77247;SHT35;66279;42.820;23.374;2023-02-23T17:48:33;9.58;63.36
77247;SHT35;66279;42.820;23.374;2023-02-23T17:51:02;9.57;63.03
77247;SHT35;66279;42.820;23.374;2023-02-23T17:53:28;9.57;63.36